createdAt,value
2023-05-19T00:00:40.235Z,91.83
2023-05-19T00:04:05.492Z,91.90
2023-05-19T00:07:31.130Z,90.98
2023-05-19T00:10:53.058Z,90.57
2023-05-19T00:14:17.093Z,90.55
2023-05-19T00:17:42.770Z,91.33
2023-05-19T00:21:04.421Z,91.56
2023-05-19T00:24:29.133Z,91.58
2023-05-19T00:27:50.729Z,89.75
2023-05-19T00:31:12.639Z,90.08
2023-05-19T00:34:37.242Z,91.25
2023-05-19T00:37:58.861Z,90.88
2023-05-19T00:41:21.073Z,91.11
2023-05-19T00:44:42.757Z,91.61
2023-05-19T00:48:04.531Z,91.39
2023-05-19T00:51:27.578Z,91.14
2023-05-19T00:54:51.703Z,91.20
2023-05-19T00:58:18.439Z,91.11
2023-05-19T01:01:45.831Z,91.85
2023-05-19T01:05:10.914Z,92.23
2023-05-19T01:08:36.273Z,91.58
2023-05-19T01:12:03.702Z,92.17
2023-05-19T01:15:27.065Z,91.50
2023-05-19T01:19:22.731Z,91.20
2023-05-19T01:22:59.740Z,90.98
2023-05-19T01:26:26.032Z,90.67
2023-05-19T01:30:06.219Z,90.59
2023-05-19T01:33:31.446Z,90.31
2023-05-19T01:36:55.466Z,90.73
2023-05-19T01:40:18.322Z,91.03
2023-05-19T01:43:40.766Z,91.93
2023-05-19T01:47:02.969Z,91.92
2023-05-19T01:50:24.625Z,91.05
2023-05-19T01:53:46.313Z,91.38
2023-05-19T01:57:25.898Z,91.23
2023-05-19T02:00:57.349Z,91.04
2023-05-19T02:04:29.222Z,91.34
2023-05-19T02:08:19.769Z,92.05
2023-05-19T02:11:44.377Z,92.70
2023-05-19T02:15:09.802Z,92.02
2023-05-19T02:18:33.284Z,92.54
2023-05-19T02:21:57.547Z,92.83
2023-05-19T02:25:19.250Z,92.83
2023-05-19T02:28:43.380Z,93.32
2023-05-19T02:32:07.882Z,93.02
2023-05-19T02:35:29.699Z,93.01
2023-05-19T02:38:51.326Z,93.15
2023-05-19T02:42:14.715Z,93.38
2023-05-19T02:45:36.355Z,93.36
2023-05-19T02:48:58.030Z,93.14
2023-05-19T02:52:22.121Z,93.32
2023-05-19T02:55:43.736Z,92.30
2023-05-19T02:59:07.678Z,92.32
2023-05-19T03:02:29.607Z,93.68
2023-05-19T03:05:51.324Z,93.73
2023-05-19T03:09:15.720Z,93.59
2023-05-19T03:12:37.393Z,93.40
2023-05-19T03:15:59.424Z,92.59
2023-05-19T03:19:23.590Z,91.87
2023-05-19T03:22:45.337Z,92.56
2023-05-19T03:26:09.419Z,93.25
2023-05-19T03:29:31.136Z,93.34
2023-05-19T03:32:55.259Z,93.39
2023-05-19T03:36:19.612Z,93.54
2023-05-19T03:39:41.199Z,92.97
2023-05-19T03:43:02.858Z,93.19
2023-05-19T03:46:24.588Z,93.08
2023-05-19T03:49:46.362Z,92.85
2023-05-19T03:53:08.174Z,93.05
2023-05-19T03:56:30.045Z,92.08
2023-05-19T03:59:51.619Z,91.61
2023-05-19T04:03:13.308Z,91.38
2023-05-19T04:06:37.725Z,92.09
2023-05-19T04:09:59.416Z,91.84
2023-05-19T04:13:21.728Z,91.39
2023-05-19T04:16:43.475Z,91.20
2023-05-19T04:20:08.326Z,90.74
2023-05-19T04:23:32.683Z,91.44
2023-05-19T04:26:56.784Z,92.47
2023-05-19T04:30:22.576Z,92.66
2023-05-19T04:33:48.037Z,91.70
2023-05-19T04:37:10.362Z,91.54
2023-05-19T04:40:32.270Z,90.71
2023-05-19T04:43:54.241Z,90.44
2023-05-19T04:47:15.941Z,91.15
2023-05-19T04:50:42.294Z,91.06
2023-05-19T04:54:04.134Z,92.01
2023-05-19T04:57:25.765Z,91.98
2023-05-19T05:00:51.862Z,92.19
2023-05-19T05:04:13.570Z,91.67
2023-05-19T05:07:35.269Z,91.62
2023-05-19T05:10:59.649Z,90.12
2023-05-19T05:14:21.614Z,90.11
2023-05-19T05:17:46.467Z,89.54
2023-05-19T05:21:08.674Z,89.59
2023-05-19T05:24:33.058Z,90.32
2023-05-19T05:27:54.741Z,88.94
2023-05-19T05:31:17.098Z,88.06
2023-05-19T05:34:40.330Z,87.90
2023-05-19T05:38:04.805Z,88.05
2023-05-19T05:41:27.400Z,89.25
2023-05-19T05:44:51.250Z,89.10
2023-05-19T05:48:15.540Z,88.76
2023-05-19T05:51:37.755Z,88.89
2023-05-19T05:55:02.592Z,87.92
2023-05-19T05:58:24.415Z,85.81
2023-05-19T06:01:46.208Z,86.18
2023-05-19T06:05:12.435Z,85.82
2023-05-19T06:08:34.165Z,84.99
2023-05-19T06:11:56.920Z,85.69
2023-05-19T06:15:18.579Z,86.52
2023-05-19T06:18:40.357Z,86.35
2023-05-19T06:22:02.070Z,86.19
2023-05-19T06:25:25.892Z,85.87
2023-05-19T06:28:49.967Z,86.85
2023-05-19T06:32:11.658Z,87.24
2023-05-19T06:35:33.280Z,86.43
2023-05-19T06:38:58.352Z,84.88
2023-05-19T06:42:22.684Z,84.46
2023-05-19T06:45:44.368Z,84.85
2023-05-19T06:49:08.208Z,84.58
2023-05-19T06:52:29.846Z,84.72
2023-05-19T06:55:58.651Z,83.85
2023-05-19T06:59:23.367Z,84.54
2023-05-19T07:02:45.036Z,85.23
2023-05-19T07:06:08.285Z,84.36
2023-05-19T07:09:32.689Z,81.70
2023-05-19T07:12:57.209Z,81.12
2023-05-19T07:16:18.897Z,80.44
2023-05-19T07:19:40.622Z,79.38
2023-05-19T07:23:05.294Z,78.03
2023-05-19T07:26:27.397Z,78.15
2023-05-19T07:29:51.123Z,77.63
2023-05-19T07:33:15.039Z,79.01
2023-05-19T07:36:37.063Z,78.43
2023-05-19T07:39:58.876Z,73.87
2023-05-19T07:43:20.551Z,74.08
2023-05-19T07:46:42.227Z,75.87
2023-05-19T07:50:04.434Z,74.53
2023-05-19T07:53:26.199Z,72.34
2023-05-19T07:56:48.336Z,73.02
2023-05-19T08:00:12.110Z,73.22
2023-05-19T08:03:34.061Z,71.34
2023-05-19T08:06:55.763Z,70.65
2023-05-19T08:10:17.693Z,68.89
2023-05-19T08:13:39.616Z,69.27
2023-05-19T08:17:01.211Z,69.57
2023-05-19T08:20:24.391Z,69.59
2023-05-19T08:23:46.381Z,69.67
2023-05-19T08:27:10.712Z,66.25
2023-05-19T08:30:32.530Z,65.76
2023-05-19T08:33:56.689Z,65.83
2023-05-19T08:37:20.815Z,66.32
2023-05-19T08:40:43.093Z,63.94
2023-05-19T08:44:05.208Z,65.07
2023-05-19T08:47:28.043Z,64.32
2023-05-19T08:51:11.834Z,64.07
2023-05-19T08:54:44.898Z,63.56
2023-05-19T08:58:07.264Z,65.12
2023-05-19T09:01:31.671Z,63.29
2023-05-19T09:04:56.069Z,66.28
2023-05-19T09:08:20.447Z,67.97
2023-05-19T09:11:46.348Z,67.94
2023-05-19T09:15:09.711Z,66.06
2023-05-19T09:18:33.971Z,62.73
2023-05-19T09:22:05.352Z,64.44
2023-05-19T09:25:32.139Z,63.69
2023-05-19T09:28:58.282Z,63.24
2023-05-19T09:32:29.004Z,63.55
2023-05-19T09:35:56.781Z,63.73
2023-05-19T09:39:20.149Z,66.42
2023-05-19T09:42:44.574Z,62.58
2023-05-19T09:46:14.911Z,63.32
2023-05-19T09:49:45.947Z,66.31
2023-05-19T09:53:07.598Z,64.72
2023-05-19T09:56:34.575Z,62.99
2023-05-19T09:59:57.982Z,61.12
2023-05-19T10:03:20.426Z,60.26
2023-05-19T10:06:42.419Z,56.97
2023-05-19T10:10:04.898Z,58.95
2023-05-19T10:13:28.987Z,57.62
2023-05-19T10:16:57.353Z,57.37
2023-05-19T10:20:19.116Z,61.14
2023-05-19T10:23:48.127Z,58.84
2023-05-19T10:27:13.298Z,59.36
2023-05-19T10:30:37.868Z,56.86
2023-05-19T10:34:22.305Z,56.75
2023-05-19T10:37:46.818Z,56.53
2023-05-19T10:41:26.933Z,57.13
2023-05-19T10:45:01.148Z,57.67
2023-05-19T10:48:23.315Z,55.22
2023-05-19T10:51:50.178Z,55.98
2023-05-19T10:55:17.641Z,57.36
2023-05-19T10:58:40.952Z,57.50
2023-05-19T11:02:09.250Z,59.19
2023-05-19T11:05:33.919Z,58.83
2023-05-19T11:09:00.919Z,56.89
2023-05-19T11:12:25.365Z,55.36
2023-05-19T11:15:47.213Z,55.61
2023-05-19T11:19:09.974Z,57.79
2023-05-19T11:22:37.164Z,56.77
2023-05-19T11:26:02.293Z,58.12
2023-05-19T11:29:24.468Z,58.81
2023-05-19T11:32:48.254Z,57.64
2023-05-19T11:36:13.425Z,59.40
2023-05-19T11:39:35.733Z,58.42
2023-05-19T11:42:58.044Z,60.21
2023-05-19T11:46:23.037Z,59.58
2023-05-19T11:49:45.992Z,57.79
2023-05-19T11:53:08.366Z,58.17
2023-05-19T11:56:40.721Z,57.90
2023-05-19T12:00:09.166Z,58.78
2023-05-19T12:03:33.232Z,57.37
2023-05-19T12:06:55.068Z,57.02
2023-05-19T12:10:31.804Z,60.08
2023-05-19T12:14:00.817Z,60.33
2023-05-19T12:17:25.180Z,58.94
2023-05-19T12:20:51.908Z,59.75
2023-05-19T12:24:16.122Z,58.33
2023-05-19T12:27:38.255Z,60.57
2023-05-19T12:31:00.221Z,58.93
2023-05-19T12:34:22.001Z,57.96
2023-05-19T12:37:43.838Z,59.55
2023-05-19T12:41:07.075Z,58.11
2023-05-19T12:44:31.373Z,58.12
2023-05-19T12:47:56.262Z,59.58
2023-05-19T12:51:21.630Z,58.88
2023-05-19T12:54:43.594Z,59.04
2023-05-19T12:58:07.021Z,60.43
2023-05-19T13:01:30.386Z,59.23
2023-05-19T13:04:54.268Z,58.05
2023-05-19T13:08:18.353Z,56.95
2023-05-19T13:11:40.766Z,54.95
2023-05-19T13:15:02.490Z,56.10
2023-05-19T13:18:24.511Z,56.98
2023-05-19T13:21:51.242Z,57.47
2023-05-19T13:25:12.960Z,58.31
2023-05-19T13:28:34.981Z,56.27
2023-05-19T13:31:57.353Z,57.49
2023-05-19T13:35:22.584Z,55.39
2023-05-19T13:38:44.304Z,57.21
2023-05-19T13:42:08.444Z,57.17
2023-05-19T13:45:30.515Z,55.76
2023-05-19T13:48:52.393Z,55.35
2023-05-19T13:52:16.799Z,53.72
2023-05-19T13:55:38.476Z,55.01
2023-05-19T13:59:00.146Z,54.98
2023-05-19T14:02:21.888Z,54.31
2023-05-19T14:05:43.537Z,54.12
2023-05-19T14:09:06.536Z,54.55
2023-05-19T14:12:40.409Z,54.87
2023-05-19T14:16:09.128Z,53.21
2023-05-19T14:19:33.314Z,52.47
2023-05-19T14:22:55.596Z,55.20
2023-05-19T14:26:17.294Z,53.67
2023-05-19T14:29:38.956Z,52.18
2023-05-19T14:33:00.705Z,54.21
2023-05-19T14:36:22.542Z,56.83
2023-05-19T14:39:44.136Z,55.96
2023-05-19T14:43:05.815Z,54.64
2023-05-19T14:46:29.877Z,55.01
2023-05-19T14:49:56.637Z,56.43
2023-05-19T14:53:18.342Z,56.06
2023-05-19T14:56:40.018Z,55.37
2023-05-19T15:00:04.017Z,56.25
2023-05-19T15:03:25.916Z,56.53
2023-05-19T15:06:52.230Z,55.40
2023-05-19T15:10:25.285Z,54.12
2023-05-19T15:13:46.910Z,55.75
2023-05-19T15:17:13.437Z,56.53
2023-05-19T15:20:35.282Z,55.34
2023-05-19T15:23:57.134Z,56.43
2023-05-19T15:27:18.799Z,54.78
2023-05-19T15:30:40.793Z,54.53
2023-05-19T15:34:02.489Z,54.96
2023-05-19T15:37:26.348Z,55.59
2023-05-19T15:40:48.124Z,55.41
2023-05-19T15:44:12.437Z,55.79
2023-05-19T15:47:41.341Z,57.35
2023-05-19T15:51:06.295Z,56.47
2023-05-19T15:54:30.103Z,56.68
2023-05-19T15:57:51.758Z,57.43
2023-05-19T16:01:14.237Z,57.34
2023-05-19T16:04:35.944Z,57.37
2023-05-19T16:07:57.609Z,57.54
2023-05-19T16:11:20.679Z,57.84
2023-05-19T16:14:47.495Z,57.56
2023-05-19T16:18:11.870Z,58.18
2023-05-19T16:21:36.117Z,57.57
2023-05-19T16:24:58.967Z,57.84
2023-05-19T16:28:25.029Z,58.16
2023-05-19T16:31:46.922Z,58.52
2023-05-19T16:35:09.343Z,59.02
2023-05-19T16:38:34.083Z,58.45
2023-05-19T16:41:55.769Z,58.34
2023-05-19T16:45:19.923Z,58.43
2023-05-19T16:48:41.623Z,59.59
2023-05-19T16:52:03.789Z,59.06
2023-05-19T16:55:27.771Z,58.97
2023-05-19T16:58:49.450Z,59.04
2023-05-19T17:02:11.143Z,58.99
2023-05-19T17:05:36.281Z,59.25
2023-05-19T17:08:57.942Z,59.72
2023-05-19T17:12:19.632Z,60.18
2023-05-19T17:15:43.194Z,60.34
2023-05-19T17:19:05.297Z,60.66
2023-05-19T17:22:30.428Z,61.30
2023-05-19T17:25:56.794Z,61.91
2023-05-19T17:29:20.849Z,62.41
2023-05-19T17:32:42.663Z,62.73
2023-05-19T17:36:09.826Z,63.19
2023-05-19T17:39:31.511Z,63.20
2023-05-19T17:42:58.097Z,63.63
2023-05-19T17:46:19.877Z,63.90
2023-05-19T17:49:41.786Z,64.03
2023-05-19T17:53:03.817Z,64.38
2023-05-19T17:56:26.645Z,65.44
2023-05-19T17:59:50.755Z,66.77
2023-05-19T18:03:12.924Z,67.16
2023-05-19T18:06:37.318Z,68.04
2023-05-19T18:10:01.205Z,68.80
2023-05-19T18:13:26.174Z,69.72
2023-05-19T18:16:49.618Z,71.37
2023-05-19T18:20:12.173Z,71.98
2023-05-19T18:23:33.783Z,72.71
2023-05-19T18:26:55.440Z,72.91
2023-05-19T18:30:20.052Z,72.65
2023-05-19T18:33:42.182Z,73.92
2023-05-19T18:37:03.874Z,73.65
2023-05-19T18:40:25.548Z,74.31
2023-05-19T18:43:47.609Z,74.80
2023-05-19T18:47:09.310Z,75.08
2023-05-19T18:50:33.937Z,74.99
2023-05-19T18:54:00.704Z,75.24
2023-05-19T18:57:24.935Z,75.94
2023-05-19T19:00:47.088Z,76.64
2023-05-19T19:04:09.057Z,77.20
2023-05-19T19:07:31.479Z,77.24
2023-05-19T19:10:54.702Z,77.40
2023-05-19T19:14:16.341Z,78.17
2023-05-19T19:17:40.129Z,77.51
2023-05-19T19:21:06.046Z,77.57
2023-05-19T19:24:28.516Z,77.63
2023-05-19T19:27:52.831Z,78.52
2023-05-19T19:31:14.572Z,79.52
2023-05-19T19:34:36.362Z,79.77
2023-05-19T19:37:58.652Z,79.46
2023-05-19T19:41:20.397Z,78.92
2023-05-19T19:44:44.312Z,79.08
2023-05-19T19:48:07.227Z,79.16
2023-05-19T19:51:31.763Z,78.70
2023-05-19T19:54:56.185Z,79.75
2023-05-19T19:58:20.160Z,80.42
2023-05-19T20:01:44.691Z,80.13
2023-05-19T20:05:06.974Z,79.79
2023-05-19T20:08:29.209Z,79.79
2023-05-19T20:11:52.861Z,80.27
2023-05-19T20:15:14.872Z,80.25
2023-05-19T20:18:36.552Z,79.70
2023-05-19T20:22:00.601Z,79.68
2023-05-19T20:25:24.485Z,80.34
2023-05-19T20:28:48.401Z,80.49
2023-05-19T20:32:12.368Z,80.50
2023-05-19T20:35:34.197Z,80.34
2023-05-19T20:38:56.028Z,81.18
2023-05-19T20:42:17.730Z,80.77
2023-05-19T20:45:39.403Z,81.47
2023-05-19T20:49:01.161Z,81.46
2023-05-19T20:52:22.799Z,81.12
2023-05-19T20:55:45.857Z,81.49
2023-05-19T20:59:07.496Z,81.60
2023-05-19T21:02:29.255Z,81.50
2023-05-19T21:05:51.494Z,81.14
2023-05-19T21:09:14.663Z,81.87
2023-05-19T21:12:38.784Z,82.51
2023-05-19T21:16:03.165Z,82.50
2023-05-19T21:19:24.864Z,82.80
2023-05-19T21:22:46.687Z,82.74
2023-05-19T21:26:10.614Z,82.57
2023-05-19T21:29:32.458Z,82.70
2023-05-19T21:32:58.940Z,82.99
2023-05-19T21:36:20.998Z,82.99
2023-05-19T21:39:45.103Z,83.13
2023-05-19T21:43:12.716Z,83.21
2023-05-19T21:46:34.331Z,83.35
2023-05-19T21:49:58.715Z,84.03
2023-05-19T21:53:28.080Z,83.89
2023-05-19T21:56:49.749Z,83.64
2023-05-19T22:00:13.332Z,83.77
2023-05-19T22:03:37.503Z,83.86
2023-05-19T22:06:59.224Z,84.65
2023-05-19T22:10:21.590Z,84.69
2023-05-19T22:13:45.875Z,84.44
2023-05-19T22:17:07.589Z,84.89
2023-05-19T22:20:31.790Z,84.75
2023-05-19T22:23:53.675Z,84.92
2023-05-19T22:27:17.636Z,85.02
2023-05-19T22:30:40.873Z,85.28
2023-05-19T22:34:05.826Z,85.30
2023-05-19T22:37:29.052Z,85.56
2023-05-19T22:40:53.038Z,85.87
2023-05-19T22:44:18.561Z,85.86
2023-05-19T22:47:40.567Z,85.53
2023-05-19T22:51:09.845Z,85.49
2023-05-19T22:54:31.564Z,85.31
2023-05-19T22:57:53.595Z,85.26
2023-05-19T23:01:15.364Z,85.72
2023-05-19T23:04:39.591Z,85.60
2023-05-19T23:08:03.874Z,85.33
2023-05-19T23:11:25.843Z,84.74
2023-05-19T23:14:47.498Z,85.27
2023-05-19T23:18:09.217Z,85.42
2023-05-19T23:21:32.493Z,85.16
2023-05-19T23:24:56.479Z,84.38
2023-05-19T23:28:18.212Z,85.15
2023-05-19T23:31:41.208Z,85.68
2023-05-19T23:35:10.893Z,85.63
2023-05-19T23:38:32.554Z,86.26
2023-05-19T23:41:57.193Z,86.59
2023-05-19T23:45:18.963Z,87.10
2023-05-19T23:48:43.092Z,87.09
2023-05-19T23:52:04.871Z,86.63
2023-05-19T23:55:29.108Z,86.42
2023-05-19T23:58:50.941Z,86.60
